Welkom op deze website. De huidige weercondities zijn wegens een verhuizing tijdelijk niet beschikbaar. Na 01-01-2019 zal deze website alleen nog via www.meteolopik.nl te bereiken zijn.

Thank you for visiting this website. The current weatherconditions are unavailable due to a moving. After 01-01-2019 this website will only be available at www.meteolopik.nl


METAR rapporten vliegvelden

   
EHAM - Amsterdam/Schiph, Netherlands
Afstand tot: NW 32 km
Gewijzigd: 16-10-2018 09:25
Patches of, Mist, Gedeeltelijk bewolkt  
Patches of, Mist, Gedeeltelijk bewolkt  
   Wind: ZO 7.4 km/h
Wind: ZO 7.4 km/h
Temperatuur: 13°C
Dauwpunt: 13°C
Vochtigheid: 100%
Barometer: 1017 hPa
Bewolking: Gedeeltelijk bewolkt
Zicht: 6 km
Bewolking: Gedeeltelijk bewolkt
EHAM 160725Z 14004KT 6000 R18C/P2000N R27/P2000N R18R/0275N R06/P2000N BCFG NSC 13/13 Q1017 BECMG CAVOK
EHRD - Rotterdam Airpor, Netherlands
Afstand tot: WZW 45 km
Gewijzigd: 16-10-2018 09:25
Gedeeltelijk bewolkt  
Gedeeltelijk bewolkt  
   Wind: Zuiden 5.6 km/h
Wind: Zuiden 5.6 km/h
Temperatuur: 12°C
Dauwpunt: 11°C
Vochtigheid: 94%
Barometer: 1017 hPa
Bewolking: Gedeeltelijk bewolkt
Zicht: meer dan 10 km
Bewolking: Gedeeltelijk bewolkt
EHRD 160725Z AUTO 17003KT 9999 NSC 12/11 Q1017 NOSIG
EHDL - Deelen Rnlafb, Netherlands
Afstand tot: O 55 km
Gewijzigd: 16-10-2018 09:25
Nevel, Bewolking  
Nevel, Bewolking  
   Wind: Oosten 5.6 km/h
Wind: Oosten 5.6 km/h
Temperatuur: 14°C
Dauwpunt: 12°C
Vochtigheid: 88%
Barometer: 1018 hPa
Bewolking: Bewolking
Zicht: 9 km
Bewolking: Bewolking 16000 ft
EHDL 160725Z AUTO 09003KT 090V160 9000 BR OVC160 14/12 Q1018 BLU
EHGR - Gilze-Rijen Rnla, Netherlands
Afstand tot: Z 59 km
Gewijzigd: 16-10-2018 09:25
Bewolking  
Bewolking  
   Wind: Zuiden 7.4 km/h
Wind: Zuiden 7.4 km/h
Temperatuur: 12°C
Dauwpunt: 10°C
Vochtigheid: 88%
Barometer: 1017 hPa
Bewolking: Bewolking
Zicht: meer dan 10 km
Bewolking: Bewolking 20000 ft
EHGR 160725Z AUTO 19004KT 100V230 9999 OVC200 12/10 Q1017 BLU 19005KT CAVOK
EHVK - Volkel Rnlafb, Netherlands
Afstand tot: ZO 67 km
Gewijzigd: 16-10-2018 09:25
Nevel, Bewolking  
Nevel, Bewolking  
   Wind: OZO 3.7 km/h
Wind: OZO 3.7 km/h
Temperatuur: 12°C
Dauwpunt: 10°C
Vochtigheid: 88%
Barometer: 1018 hPa
Bewolking: Bewolking
Zicht: 9 km
Bewolking: Bewolking 15000 ft
EHVK 160725Z AUTO 11002KT 9000 BR OVC150 12/10 Q1018 BLU VRB01KT 8000 NSC
EHEH - Eindhoven Rnlafb, Netherlands
Afstand tot: ZZO 74 km
Gewijzigd: 16-10-2018 09:25
Bewolking  
Bewolking  
   Wind: varieert 3.7 km/h
Wind: varieert 3.7 km/h
Temperatuur: 13°C
Dauwpunt: 10°C
Vochtigheid: 82%
Barometer: 1018 hPa
Bewolking: Bewolking
Zicht: meer dan 10 km
Bewolking: Bewolking 16000 ft
EHEH 160725Z AUTO VRB02KT 9999 OVC160 13/10 Q1018 BLU 18003KT CAVOK

Script ontwikkeld door  Saratoga-weather.org Aangepast voor de template door  Weerstation Leuven

Apparatuur in gebruik:

Weerstation
Davis VP2 Plus (Wireless)

Weerprogramma
Cumulus

Weercomputer
Shuttle Inc. SFM27

Webleverancier
Antagonist Webhosting

Davis VP2 Plus (Wireless)

Cumulus

Shuttle Inc. SFM27

Antagonist Webhosting